x

South Nomad (46036) Wave Buoy

10:00pm - Mon 22nd May 2017 All times are UTC.

  • Sig Wave height 7.5ft
  • Peak Period 10s
  • Wind
    18mph, 20mph gusts
  • Sea Temp 49°f
  • Air Temp 50°f
  • Sea Pressure 1022.9mb

More Historic Weather Station data

Upgrade to MSW Pro to gain access to the past 30 days of data for over 8000 Wavebouys and Weather Stations around the globe.

Join Pro

Comparision Forecast

View Surf forecast
   
Mon 05/22 10:00pm 7.5ft 10s 18 20 mph 1022.9mb 49f 50f
9:00pm 7.5ft 9s 16 20 mph 1023.1mb 49f 50f
8:00pm 7ft 10s 16 18 mph 1023.2mb 49f 51f
7:00pm 7ft 12s 16 20 mph 1023.2mb 49f 50f
6:00pm 7ft 10s 16 18 mph 1023.1mb 49f 51f
5:00pm 7ft 12s 13 16 mph 1023.5mb 49f 50f
4:00pm 7ft 11s 13 13 mph 1023.8mb 49f 50f
3:00pm 7.5ft 11s 11 16 mph 1023.9mb 49f 50f
2:00pm 8ft 10s 13 13 mph 1023.1mb 49f 50f
1:00pm 8ft 10s 13 16 mph 1023.3mb 49f 50f
12:00pm 8ft 10s 13 16 mph 1023.3mb 49f 50f
11:00am 8ft 12s 13 16 mph 1023.8mb 49f 50f
10:00am 8ft 10s 13 18 mph 1023.8mb 49f 50f
9:00am 9ft 10s 16 18 mph 1024.1mb 49f 50f
8:00am 8.5ft 12s 16 18 mph 1024.2mb 49f 50f
7:00am 8ft 10s 13 18 mph 1024.5mb 49f 50f
6:00am 8ft 10s 16 18 mph 1024.3mb 49f 50f
5:00am 8.5ft 11s 16 18 mph 1024.4mb 49f 50f
4:00am 8.5ft 10s 16 18 mph 1024.3mb 49f 50f
3:00am 8.5ft 11s 16 18 mph 1024.3mb 49f 50f
2:00am 9ft 11s 16 18 mph 1024.2mb 49f 50f
1:00am 9.5ft 11s 16 18 mph 1024.6mb 49f 51f
12:00am 9ft 10s 13 18 mph 1024.6mb 49f 51f
Sun 05/21 11:00pm 8.5ft 10s 16 18 mph 1024.5mb 49f 51f
10:00pm 8ft 9s 16 18 mph 1024.4mb 49f 51f
9:00pm 8.5ft 9s 18 20 mph 1024.4mb 49f 51f
8:00pm 8ft 10s 18 20 mph 1024.5mb 49f 51f
7:00pm 8ft 10s 18 20 mph 1024.3mb 49f 51f
6:00pm 8ft 10s 18 20 mph 1023.8mb 49f 51f
5:00pm 7.5ft 9s 16 18 mph 1023.7mb 49f 50f
4:00pm 8ft 10s 18 20 mph 1023.3mb 49f 50f
3:00pm 7.5ft 9s 18 22 mph 1022.7mb 49f 50f
2:00pm 7ft 10s 18 20 mph 1022.7mb 49f 50f
1:00pm 7.5ft 8s 18 22 mph 1022.3mb 49f 50f
12:00pm 7ft 9s 18 22 mph 1022.2mb 49f 50f
11:00am 7ft 10s 18 22 mph 1022.5mb 49f 50f
10:00am 6.5ft 10s 18 22 mph 1022.5mb 49f 50f
9:00am 6ft 9s 18 20 mph 1022.9mb 49f 50f
8:00am 6ft 10s 16 20 mph 1023mb 49f 50f
7:00am 6ft 9s 18 20 mph 1023.2mb 49f 50f
6:00am 5.5ft 10s 18 20 mph 1023.3mb 49f 50f
5:00am 5ft 10s 18 22 mph 1022.8mb 49f 50f
4:00am 4.5ft 14s 18 20 mph 1022.5mb 49f 51f
3:00am 4.5ft 9s 16 18 mph 1022.6mb 49f 50f
2:00am 4.5ft 10s 16 18 mph 1022.7mb 49f 51f
1:00am 4ft 10s 16 18 mph 1022.9mb 49f 51f
12:00am 4ft 11s 16 18 mph 1023.1mb 49f 51f
Sat 05/20 11:00pm 4ft 10s 16 18 mph 1023.3mb 49f 51f
10:00pm 3.5ft 8s 13 16 mph 1023.6mb 49f 51f
9:00pm 3.5ft 11s 13 18 mph 1023.6mb 49f 51f
8:00pm 3.5ft 8s 13 13 mph 1023.6mb 49f 51f
7:00pm 3.5ft 11s 13 16 mph 1023.4mb 49f 51f
6:00pm 3.5ft 10s 16 18 mph 1023.3mb 49f 51f
5:00pm 3.5ft 10s 11 13 mph 1023.2mb 49f 50f
4:00pm 3.5ft 11s 11 13 mph 1023mb 49f 49f
3:00pm 3.5ft 10s 9 11 mph 1022.8mb 48f 49f
2:00pm 4ft 10s 9 11 mph 1022.5mb 48f 49f
1:00pm 4ft 10s 11 13 mph 1022.7mb 48f 49f
12:00pm 4.5ft 11s 11 13 mph 1022.6mb 48f 49f
11:00am 4.5ft 8s 13 13 mph 1022.8mb 48f 48f
10:00am 4.5ft 8s 11 13 mph 1022.9mb 49f 48f
9:00am 4.5ft 8s 9 11 mph 1023.2mb 49f 47f
8:00am 4.5ft 8s 9 11 mph 1023.3mb 49f 47f
7:00am 4.5ft 9s 7 9 mph 1023.8mb 49f 46f
6:00am 4.5ft 9s 4 9 mph 1023.7mb 49f 47f
5:00am 4.5ft 11s 4 7 mph 1023.5mb 49f 47f
4:00am 4.5ft 11s 7 9 mph 1023.4mb 49f 46f
3:00am 5ft 9s 2 4 mph 1023mb 49f 47f
1:00am 4.5ft 9s 4 7 mph 1023.2mb 49f 49f
12:00am 5ft 9s 7 9 mph 1023.5mb 49f 49f
Fri 05/19 11:00pm 5ft 9s 7 9 mph 1023.5mb 49f 49f
10:00pm 5ft 8s 9 11 mph 1023.3mb 48f 47f
9:00pm 5ft 12s 9 11 mph 1023.3mb 48f 48f
8:00pm 5ft 8s 9 11 mph 1023.1mb 48f 48f
7:00pm 5ft 9s 9 11 mph 1022.6mb 48f 48f
6:00pm 5ft 12s 9 11 mph 1022.6mb 48f 48f
5:00pm 5ft 8s 11 13 mph 1022.6mb 48f 47f
4:00pm 5ft 9s 9 9 mph 1021.8mb 48f 47f
3:00pm 5ft 8s 7 9 mph 1021.6mb 48f 47f
2:00pm 5ft 8s 11 13 mph 1021.2mb 48f 47f
1:00pm 5ft 8s 11 13 mph 1021mb 48f 47f
12:00pm 5ft 8s 11 16 mph 1020.9mb 48f 47f
11:00am 5ft 8s 11 13 mph 1020.4mb 48f 47f
10:00am 5ft 10s 13 16 mph 1020.2mb 48f 47f
9:00am 4.5ft 8s 13 18 mph 1020.7mb 48f 47f
8:00am 4.5ft 7s 13 16 mph 1020.5mb 48f 47f
7:00am 4.5ft 8s 11 13 mph 1020.2mb 48f 47f
6:00am 4.5ft 8s 11 13 mph 1019.7mb 48f 47f
5:00am 4.5ft 9s 9 11 mph 1019.1mb 48f 47f
4:00am 4.5ft 8s 7 9 mph 1018.7mb 48f 48f
3:00am 4.5ft 9s 9 11 mph 1018.4mb 48f 48f
2:00am 4.5ft 8s 11 13 mph 1018.4mb 48f 48f
1:00am 4.5ft 9s 11 13 mph 1018.1mb 48f 48f
12:00am 5ft 8s 11 13 mph 1018mb 48f 48f